Time;durP1;ratioP1;P1;durP2;ratioP2;P2;SDS_P1;SDS_P2;PMS_P1;PMS_P2;Temp;Humidity;BMP_temperature;BMP_pressure;BME280_temperature;BME280_humidity;BME280_pressure;Samples;Min_cycle;Max_cycle;Signal;HPM_P1;HPM_P2
2023/04/15 00:00:56;;;;;;;8.13;4.30;;;;;;;;;;5011686;28;20209;-62
2023/04/15 00:03:22;;;;;;;11.20;5.25;;;;;;;;;;4991614;28;20209;-62
2023/04/15 00:05:47;;;;;;;8.57;4.88;;;;;;;;;;4992518;28;20217;-62
2023/04/15 00:08:12;;;;;;;9.98;4.80;;;;;;;;;;4990985;28;20233;-62
2023/04/15 00:10:38;;;;;;;9.13;4.80;;;;;;;;;;4992473;28;20218;-63
2023/04/15 00:13:03;;;;;;;9.05;5.25;;;;;;;;;;4992016;28;20223;-62
2023/04/15 00:15:28;;;;;;;11.60;5.45;;;;;;;;;;4991354;28;20336;-62
2023/04/15 00:17:54;;;;;;;7.72;4.35;;;;;;;;;;4992110;28;20292;-62
2023/04/15 00:20:19;;;;;;;9.52;4.50;;;;;;;;;;4991698;28;20283;-62
2023/04/15 00:22:45;;;;;;;7.22;4.72;;;;;;;;;;4990715;28;20577;-62
2023/04/15 00:25:10;;;;;;;10.93;5.38;;;;;;;;;;4991568;28;20573;-62
2023/04/15 00:27:36;;;;;;;9.75;5.03;;;;;;;;;;4992165;28;20295;-62
2023/04/15 00:30:02;;;;;;;9.23;5.20;;;;;;;;;;4990829;28;20206;-62
2023/04/15 00:32:28;;;;;;;10.95;5.72;;;;;;;;;;4991577;28;20285;-62
2023/04/15 00:34:53;;;;;;;12.45;5.50;;;;;;;;;;4991912;28;20253;-62
2023/04/15 00:37:18;;;;;;;9.70;5.63;;;;;;;;;;4990596;28;20209;-62
2023/04/15 00:39:44;;;;;;;10.90;5.78;;;;;;;;;;4991875;28;20232;-62
2023/04/15 00:42:09;;;;;;;11.45;4.95;;;;;;;;;;4991274;28;20229;-62
2023/04/15 00:44:35;;;;;;;9.50;4.72;;;;;;;;;;4990869;28;20209;-62
2023/04/15 00:47:01;;;;;;;9.55;5.15;;;;;;;;;;4993287;28;20300;-62
2023/04/15 00:49:27;;;;;;;10.98;5.38;;;;;;;;;;5011046;28;20209;-62
2023/04/15 00:51:52;;;;;;;10.38;5.00;;;;;;;;;;5009024;28;20223;-63
2023/04/15 00:54:18;;;;;;;9.25;5.20;;;;;;;;;;4997794;28;20233;-62
2023/04/15 00:56:43;;;;;;;8.60;4.90;;;;;;;;;;4991559;28;20221;-63
2023/04/15 00:59:08;;;;;;;8.98;4.90;;;;;;;;;;4990341;28;20668;-62
2023/04/15 01:01:34;;;;;;;8.23;5.20;;;;;;;;;;4990989;28;20221;-62
2023/04/15 01:03:59;;;;;;;10.82;4.85;;;;;;;;;;4991274;28;20660;-62
2023/04/15 01:06:26;;;;;;;9.07;4.85;;;;;;;;;;4990033;28;20735;-62
2023/04/15 01:08:51;;;;;;;8.68;4.82;;;;;;;;;;4991395;28;20233;-62
2023/04/15 01:11:17;;;;;;;7.57;4.68;;;;;;;;;;4990581;28;20248;-62
2023/04/15 01:13:42;;;;;;;11.20;5.20;;;;;;;;;;4990855;28;20571;-62
2023/04/15 01:16:07;;;;;;;10.13;4.78;;;;;;;;;;4989231;28;20244;-62
2023/04/15 01:18:33;;;;;;;8.13;4.35;;;;;;;;;;4990154;28;20241;-62
2023/04/15 01:20:59;;;;;;;9.35;5.03;;;;;;;;;;4989911;28;20244;-62
2023/04/15 01:23:25;;;;;;;8.68;4.97;;;;;;;;;;4990645;28;20210;-62
2023/04/15 01:25:50;;;;;;;9.38;4.78;;;;;;;;;;4990347;28;20608;-62
2023/04/15 01:28:15;;;;;;;9.15;4.22;;;;;;;;;;4989292;28;20661;-62
2023/04/15 01:30:41;;;;;;;9.77;4.30;;;;;;;;;;4990983;28;20223;-62
2023/04/15 01:33:06;;;;;;;7.00;4.18;;;;;;;;;;4989566;28;20528;-62
2023/04/15 01:35:31;;;;;;;9.75;5.07;;;;;;;;;;4991083;28;20273;-62
2023/04/15 01:37:59;;;;;;;8.50;4.80;;;;;;;;;;4990928;28;20584;-62
2023/04/15 01:40:24;;;;;;;8.60;5.30;;;;;;;;;;4988377;28;20224;-62
2023/04/15 01:42:49;;;;;;;10.85;5.28;;;;;;;;;;4990938;28;20213;-62
2023/04/15 01:45:15;;;;;;;10.07;5.10;;;;;;;;;;4990598;28;20275;-62
2023/04/15 01:47:40;;;;;;;10.90;5.30;;;;;;;;;;4997328;28;20232;-62
2023/04/15 01:50:06;;;;;;;9.95;5.20;;;;;;;;;;5010029;28;20299;-62
2023/04/15 01:52:31;;;;;;;10.38;5.13;;;;;;;;;;5010199;28;20224;-62
2023/04/15 01:54:56;;;;;;;9.10;5.18;;;;;;;;;;4991779;28;20300;-62
2023/04/15 01:57:22;;;;;;;7.22;4.55;;;;;;;;;;4990328;28;20236;-62
2023/04/15 01:59:47;;;;;;;8.15;4.65;;;;;;;;;;4990855;28;20271;-62
2023/04/15 02:02:12;;;;;;;8.68;4.85;;;;;;;;;;4989232;28;20259;-62
2023/04/15 02:04:37;;;;;;;9.45;4.85;;;;;;;;;;4990576;28;20680;-62
2023/04/15 02:07:03;;;;;;;8.02;4.88;;;;;;;;;;4990253;28;20283;-62
2023/04/15 02:09:28;;;;;;;7.82;5.45;;;;;;;;;;4990069;28;20313;-62
2023/04/15 02:11:54;;;;;;;8.85;5.25;;;;;;;;;;4990955;28;20561;-62
2023/04/15 02:14:19;;;;;;;9.40;5.03;;;;;;;;;;4990437;28;20340;-62
2023/04/15 02:16:44;;;;;;;9.43;5.05;;;;;;;;;;4990020;28;20220;-62
2023/04/15 02:19:09;;;;;;;9.20;5.28;;;;;;;;;;4990048;28;20209;-62
2023/04/15 02:21:35;;;;;;;9.40;5.20;;;;;;;;;;4990789;28;20216;-62
2023/04/15 02:24:01;;;;;;;10.15;5.70;;;;;;;;;;4989240;28;20593;-62
2023/04/15 02:26:26;;;;;;;8.20;5.45;;;;;;;;;;4989286;28;20217;-62
2023/04/15 02:28:52;;;;;;;9.57;5.40;;;;;;;;;;4989872;28;20240;-62
2023/04/15 02:31:17;;;;;;;8.48;5.43;;;;;;;;;;4990057;28;20227;-62
2023/04/15 02:33:42;;;;;;;9.55;5.47;;;;;;;;;;4990321;28;20740;-62
2023/04/15 02:36:09;;;;;;;10.85;5.93;;;;;;;;;;4989300;28;20217;-62
2023/04/15 02:38:34;;;;;;;7.85;4.57;;;;;;;;;;4990415;28;20677;-62
2023/04/15 02:40:59;;;;;;;10.77;5.45;;;;;;;;;;4990518;28;20272;-62
2023/04/15 02:43:24;;;;;;;11.70;5.68;;;;;;;;;;4989048;28;20681;-62
2023/04/15 02:45:50;;;;;;;8.45;5.57;;;;;;;;;;4992817;28;20213;-62
2023/04/15 02:48:17;;;;;;;9.68;5.63;;;;;;;;;;5005489;28;20233;-62
2023/04/15 02:50:43;;;;;;;11.38;5.80;;;;;;;;;;5012603;28;20223;-62
2023/04/15 02:53:08;;;;;;;12.52;6.00;;;;;;;;;;5009532;28;20240;-62
2023/04/15 02:55:33;;;;;;;11.38;6.25;;;;;;;;;;4993758;28;20218;-62
2023/04/15 02:57:59;;;;;;;10.20;6.18;;;;;;;;;;4993088;28;20209;-62
2023/04/15 03:00:25;;;;;;;9.65;5.78;;;;;;;;;;4993194;28;20314;-62
2023/04/15 03:02:55;;;;;;;9.75;6.35;;;;;;;;;;4993465;28;20727;-62
2023/04/15 03:05:20;;;;;;;11.10;6.53;;;;;;;;;;4992196;28;21482;-62
2023/04/15 03:07:45;;;;;;;12.13;6.70;;;;;;;;;;4993278;28;20259;-62
2023/04/15 03:10:10;;;;;;;10.20;6.47;;;;;;;;;;4993068;28;20213;-62
2023/04/15 03:12:36;;;;;;;11.20;5.97;;;;;;;;;;4992977;28;20201;-62
2023/04/15 03:15:01;;;;;;;11.98;7.55;;;;;;;;;;4992855;28;20213;-62
2023/04/15 03:17:26;;;;;;;11.07;6.60;;;;;;;;;;4993294;28;20212;-62
2023/04/15 03:19:51;;;;;;;9.05;6.70;;;;;;;;;;5009614;28;20476;-63
2023/04/15 03:22:17;;;;;;;9.90;7.10;;;;;;;;;;5012677;28;20209;-63
2023/04/15 03:24:42;;;;;;;11.45;6.68;;;;;;;;;;4968393;28;20264;-64
2023/04/15 03:27:08;;;;;;;9.75;6.68;;;;;;;;;;4964778;28;20236;-62
2023/04/15 03:29:33;;;;;;;11.95;7.45;;;;;;;;;;4961312;28;20209;-63
2023/04/15 03:31:58;;;;;;;10.02;7.00;;;;;;;;;;4965660;28;20665;-63
2023/04/15 03:34:24;;;;;;;10.48;7.03;;;;;;;;;;4975442;28;20630;-63
2023/04/15 03:36:50;;;;;;;12.15;7.50;;;;;;;;;;4981884;28;20209;-63
2023/04/15 03:39:15;;;;;;;8.80;6.47;;;;;;;;;;4983876;28;20249;-63
2023/04/15 03:41:40;;;;;;;11.82;7.72;;;;;;;;;;4985134;28;20224;-63
2023/04/15 03:44:06;;;;;;;8.45;6.75;;;;;;;;;;4965519;28;20230;-63
2023/04/15 03:46:31;;;;;;;12.02;8.10;;;;;;;;;;4965453;28;20300;-63
2023/04/15 03:48:56;;;;;;;10.65;7.53;;;;;;;;;;4966350;28;20634;-63
2023/04/15 03:51:21;;;;;;;11.80;7.38;;;;;;;;;;4962684;28;20217;-63
2023/04/15 03:53:47;;;;;;;11.90;7.97;;;;;;;;;;4971016;28;20236;-63
2023/04/15 03:56:12;;;;;;;10.70;7.38;;;;;;;;;;4975474;28;21554;-63
2023/04/15 03:58:37;;;;;;;12.15;8.18;;;;;;;;;;4978857;28;20227;-64
2023/04/15 04:01:02;;;;;;;12.82;7.70;;;;;;;;;;4984156;28;20630;-63
2023/04/15 04:03:28;;;;;;;12.95;7.60;;;;;;;;;;4984774;28;20216;-62
2023/04/15 04:05:53;;;;;;;13.13;8.07;;;;;;;;;;4984709;28;20673;-62
2023/04/15 04:08:20;;;;;;;14.05;8.18;;;;;;;;;;4996543;28;20240;-62
2023/04/15 04:10:45;;;;;;;11.43;7.60;;;;;;;;;;5003946;28;20213;-63
2023/04/15 04:13:11;;;;;;;14.65;7.97;;;;;;;;;;5003700;28;20307;-63
2023/04/15 04:15:36;;;;;;;11.82;8.52;;;;;;;;;;4995702;28;20209;-63
2023/04/15 04:18:01;;;;;;;11.50;8.07;;;;;;;;;;4995786;28;20216;-62
2023/04/15 04:20:26;;;;;;;10.57;7.53;;;;;;;;;;4995760;28;20390;-63
2023/04/15 04:22:52;;;;;;;12.65;8.10;;;;;;;;;;5001468;28;20220;-63
2023/04/15 04:25:17;;;;;;;14.13;8.85;;;;;;;;;;4983769;28;20596;-63
2023/04/15 04:27:42;;;;;;;14.02;8.55;;;;;;;;;;4984331;28;20225;-63
2023/04/15 04:30:07;;;;;;;11.70;8.07;;;;;;;;;;4983138;28;20256;-62
2023/04/15 04:32:33;;;;;;;11.95;8.70;;;;;;;;;;4992649;28;20267;-62
2023/04/15 04:34:58;;;;;;;12.68;9.07;;;;;;;;;;5013069;28;20284;-62
2023/04/15 04:37:23;;;;;;;13.55;8.73;;;;;;;;;;5000607;28;20712;-62
2023/04/15 04:39:49;;;;;;;13.13;9.05;;;;;;;;;;4984328;28;20209;-62
2023/04/15 04:42:14;;;;;;;12.40;8.43;;;;;;;;;;4981483;28;20710;-62
2023/04/15 04:44:39;;;;;;;11.48;8.10;;;;;;;;;;4975691;28;20216;-62
2023/04/15 04:47:06;;;;;;;11.27;8.65;;;;;;;;;;4975594;28;20568;-62
2023/04/15 04:49:31;;;;;;;12.50;9.02;;;;;;;;;;4977626;28;20244;-62
2023/04/15 04:51:56;;;;;;;12.65;8.98;;;;;;;;;;4983740;28;20267;-62
2023/04/15 04:54:22;;;;;;;12.85;9.00;;;;;;;;;;4991237;28;20228;-62
2023/04/15 04:56:48;;;;;;;13.25;9.18;;;;;;;;;;4982666;28;20221;-62
2023/04/15 04:59:13;;;;;;;13.23;10.17;;;;;;;;;;4983361;28;20240;-62
2023/04/15 05:01:38;;;;;;;12.38;9.00;;;;;;;;;;4983640;28;20564;-62
2023/04/15 05:04:04;;;;;;;13.00;9.48;;;;;;;;;;4973694;28;20274;-62
2023/04/15 05:06:30;;;;;;;12.68;9.63;;;;;;;;;;4975671;28;20705;-62
2023/04/15 05:08:55;;;;;;;13.13;10.07;;;;;;;;;;4975297;28;20302;-62
2023/04/15 05:11:20;;;;;;;12.43;9.52;;;;;;;;;;4974765;28;20220;-62
2023/04/15 05:13:46;;;;;;;13.13;9.30;;;;;;;;;;4983308;28;20213;-62
2023/04/15 05:16:11;;;;;;;11.65;9.30;;;;;;;;;;4982884;28;20267;-62
2023/04/15 05:18:36;;;;;;;11.90;9.30;;;;;;;;;;5001814;28;20216;-62
2023/04/15 05:21:02;;;;;;;12.38;8.85;;;;;;;;;;5002443;28;20213;-62
2023/04/15 05:23:27;;;;;;;13.18;9.20;;;;;;;;;;4996393;28;20602;-62
2023/04/15 05:25:52;;;;;;;13.93;9.32;;;;;;;;;;4983159;28;20217;-62
2023/04/15 05:28:18;;;;;;;11.75;9.23;;;;;;;;;;4977994;28;20229;-62
2023/04/15 05:30:43;;;;;;;13.02;9.10;;;;;;;;;;4975726;28;20220;-62
2023/04/15 05:33:08;;;;;;;12.63;9.45;;;;;;;;;;4974240;28;20427;-62
2023/04/15 05:35:33;;;;;;;10.57;8.52;;;;;;;;;;4980548;28;20213;-63
2023/04/15 05:37:59;;;;;;;14.38;9.05;;;;;;;;;;4982888;28;20564;-63
2023/04/15 05:40:24;;;;;;;12.48;8.77;;;;;;;;;;4982252;28;20216;-62
2023/04/15 05:42:50;;;;;;;11.98;8.80;;;;;;;;;;4982884;28;20312;-62
2023/04/15 05:45:15;;;;;;;10.70;8.63;;;;;;;;;;4982761;28;20217;-62
2023/04/15 05:47:40;;;;;;;11.32;9.00;;;;;;;;;;4993654;28;20308;-63
2023/04/15 05:50:06;;;;;;;12.90;9.23;;;;;;;;;;4980374;28;20209;-63
2023/04/15 05:52:31;;;;;;;11.65;9.50;;;;;;;;;;4974814;28;20550;-64
2023/04/15 05:54:56;;;;;;;11.48;9.70;;;;;;;;;;4974449;28;20213;-67
2023/04/15 05:57:22;;;;;;;11.90;10.00;;;;;;;;;;4975972;28;20844;-64
2023/04/15 05:59:47;;;;;;;12.82;10.30;;;;;;;;;;4982455;28;21219;-64
2023/04/15 06:02:13;;;;;;;14.70;9.40;;;;;;;;;;4956198;28;20241;-63
2023/04/15 06:04:38;;;;;;;12.15;9.75;;;;;;;;;;4971290;28;20221;-64
2023/04/15 06:07:03;;;;;;;13.45;9.48;;;;;;;;;;4962808;28;20426;-63
2023/04/15 06:09:29;;;;;;;13.30;9.98;;;;;;;;;;4963606;28;20220;-63
2023/04/15 06:11:55;;;;;;;13.90;10.25;;;;;;;;;;4963791;28;20218;-64
2023/04/15 06:14:21;;;;;;;12.05;9.70;;;;;;;;;;4954601;28;20771;-64
2023/04/15 06:16:46;;;;;;;14.10;9.98;;;;;;;;;;4955433;28;20226;-65
2023/04/15 06:19:11;;;;;;;12.43;9.80;;;;;;;;;;4955189;28;20218;-64
2023/04/15 06:21:36;;;;;;;12.75;9.43;;;;;;;;;;4994182;28;20793;-64
2023/04/15 06:24:02;;;;;;;13.77;8.57;;;;;;;;;;5011704;28;20232;-62
2023/04/15 06:26:28;;;;;;;12.82;8.80;;;;;;;;;;5015114;28;20211;-62
2023/04/15 06:28:53;;;;;;;12.93;8.35;;;;;;;;;;5014410;28;20267;-63
2023/04/15 06:31:18;;;;;;;10.77;8.18;;;;;;;;;;5013932;28;20196;-63
2023/04/15 06:33:43;;;;;;;9.65;7.68;;;;;;;;;;4997756;28;20784;-63
2023/04/15 06:36:09;;;;;;;10.88;8.13;;;;;;;;;;5014013;28;20240;-63
2023/04/15 06:38:34;;;;;;;10.52;8.60;;;;;;;;;;5014898;28;20215;-63
2023/04/15 06:40:59;;;;;;;11.82;8.13;;;;;;;;;;5015081;28;20702;-64
2023/04/15 06:43:25;;;;;;;10.70;8.63;;;;;;;;;;5013697;28;20220;-63
2023/04/15 06:45:50;;;;;;;12.35;9.18;;;;;;;;;;5015226;28;20209;-65
2023/04/15 06:48:16;;;;;;;12.20;9.30;;;;;;;;;;5002450;28;20235;-64
2023/04/15 06:50:41;;;;;;;13.27;9.70;;;;;;;;;;4995257;28;20217;-64
2023/04/15 06:53:07;;;;;;;13.50;10.43;;;;;;;;;;5011967;28;20232;-64
2023/04/15 06:55:33;;;;;;;15.25;10.05;;;;;;;;;;5034874;28;20223;-64
2023/04/15 06:57:58;;;;;;;13.20;10.55;;;;;;;;;;5034236;28;20577;-64
2023/04/15 07:00:24;;;;;;;14.30;10.70;;;;;;;;;;5034600;28;20803;-62
2023/04/15 07:02:50;;;;;;;14.50;10.23;;;;;;;;;;5034826;28;20694;-63
2023/04/15 07:05:15;;;;;;;14.98;11.32;;;;;;;;;;5033684;28;20215;-63
2023/04/15 07:07:41;;;;;;;12.50;10.30;;;;;;;;;;5034182;28;20224;-62
2023/04/15 07:10:06;;;;;;;12.02;9.20;;;;;;;;;;5032933;28;20232;-61
2023/04/15 07:12:31;;;;;;;12.18;9.75;;;;;;;;;;5034373;28;20215;-62
2023/04/15 07:14:57;;;;;;;12.88;9.75;;;;;;;;;;5034115;28;20210;-62
2023/04/15 07:17:22;;;;;;;11.98;9.45;;;;;;;;;;5033138;28;20638;-62
2023/04/15 07:19:48;;;;;;;12.43;8.98;;;;;;;;;;5034138;28;20203;-62
2023/04/15 07:22:13;;;;;;;12.05;9.05;;;;;;;;;;5029890;28;20702;-63
2023/04/15 07:24:38;;;;;;;12.00;9.57;;;;;;;;;;5028982;28;20223;-62
2023/04/15 07:27:03;;;;;;;10.90;9.02;;;;;;;;;;5033331;28;20274;-63
2023/04/15 07:29:29;;;;;;;12.43;9.35;;;;;;;;;;5033010;28;20214;-63
2023/04/15 07:31:55;;;;;;;12.27;9.55;;;;;;;;;;5033353;28;20262;-63
2023/04/15 07:34:21;;;;;;;12.65;9.35;;;;;;;;;;5033696;28;20675;-63
2023/04/15 07:36:49;;;;;;;21.80;9.15;;;;;;;;;;5034388;28;20273;-63
2023/04/15 07:39:14;;;;;;;12.55;9.30;;;;;;;;;;5032948;28;20722;-62
2023/04/15 07:41:40;;;;;;;11.50;9.45;;;;;;;;;;5016210;28;20212;-62
2023/04/15 07:44:05;;;;;;;13.25;9.68;;;;;;;;;;5033737;28;20246;-63
2023/04/15 07:46:31;;;;;;;12.43;8.32;;;;;;;;;;5033443;28;20215;-62
2023/04/15 07:48:56;;;;;;;12.13;8.30;;;;;;;;;;5016107;28;20228;-63
2023/04/15 07:51:21;;;;;;;11.90;8.88;;;;;;;;;;5013926;28;20208;-62
2023/04/15 07:53:48;;;;;;;11.48;8.80;;;;;;;;;;5013297;28;20236;-64
2023/04/15 07:56:13;;;;;;;10.38;8.35;;;;;;;;;;5013275;28;20258;-62
2023/04/15 07:58:39;;;;;;;10.40;8.02;;;;;;;;;;5014177;28;20303;-63
2023/04/15 08:01:04;;;;;;;10.98;7.88;;;;;;;;;;5012856;28;20577;-62
2023/04/15 08:03:30;;;;;;;9.55;6.82;;;;;;;;;;5014063;28;20236;-63
2023/04/15 08:05:55;;;;;;;9.43;6.85;;;;;;;;;;5013746;28;20604;-63
2023/04/15 08:08:21;;;;;;;9.73;7.00;;;;;;;;;;5012537;28;20235;-63
2023/04/15 08:10:46;;;;;;;10.90;6.57;;;;;;;;;;5013584;28;20217;-63
2023/04/15 08:13:11;;;;;;;8.93;7.00;;;;;;;;;;5013373;28;20224;-62
2023/04/15 08:15:36;;;;;;;8.68;6.28;;;;;;;;;;5013117;28;20220;-62
2023/04/15 08:18:02;;;;;;;9.57;6.25;;;;;;;;;;5013318;28;20224;-62
2023/04/15 08:20:27;;;;;;;9.93;6.40;;;;;;;;;;5012948;28;20208;-63
2023/04/15 08:22:52;;;;;;;9.15;5.38;;;;;;;;;;5013641;28;20209;-62
2023/04/15 08:25:18;;;;;;;10.25;5.55;;;;;;;;;;5013038;28;20299;-63
2023/04/15 08:27:44;;;;;;;8.45;5.65;;;;;;;;;;5012510;28;20224;-62
2023/04/15 08:30:10;;;;;;;8.35;5.60;;;;;;;;;;5013006;28;20219;-62
2023/04/15 08:32:36;;;;;;;7.93;5.72;;;;;;;;;;5013303;28;20239;-63
2023/04/15 08:35:01;;;;;;;7.32;4.97;;;;;;;;;;5012244;28;20691;-63
2023/04/15 08:37:27;;;;;;;7.15;5.10;;;;;;;;;;5013303;28;20246;-62
2023/04/15 08:39:52;;;;;;;7.53;4.95;;;;;;;;;;5013319;28;20455;-62
2023/04/15 08:42:18;;;;;;;7.90;5.10;;;;;;;;;;5011228;28;20267;-63
2023/04/15 08:44:43;;;;;;;8.95;4.68;;;;;;;;;;4995955;28;20217;-63
2023/04/15 08:47:09;;;;;;;8.27;5.38;;;;;;;;;;4994984;28;20262;-63
2023/04/15 08:49:35;;;;;;;7.60;4.82;;;;;;;;;;5012161;28;20209;-63
2023/04/15 08:52:01;;;;;;;7.20;4.80;;;;;;;;;;4995039;28;20213;-63
2023/04/15 08:54:27;;;;;;;6.95;4.85;;;;;;;;;;5016247;28;20239;-63
2023/04/15 08:56:52;;;;;;;7.65;5.50;;;;;;;;;;5012304;28;20209;-63
2023/04/15 08:59:20;;;;;;;17.70;14.10;;;;;;;;;;5012631;28;20224;-63
2023/04/15 09:01:45;;;;;;;7.43;5.15;;;;;;;;;;5013067;28;20305;-63
2023/04/15 09:04:11;;;;;;;6.95;5.30;;;;;;;;;;5012115;28;20679;-63
2023/04/15 09:06:36;;;;;;;6.70;5.30;;;;;;;;;;5013056;28;20227;-64
2023/04/15 09:09:01;;;;;;;7.43;5.40;;;;;;;;;;5011273;28;20260;-63
2023/04/15 09:11:27;;;;;;;10.13;8.57;;;;;;;;;;5012235;28;20209;-64
2023/04/15 09:13:52;;;;;;;8.15;4.97;;;;;;;;;;5011300;28;20217;-63
2023/04/15 09:16:18;;;;;;;7.32;5.72;;;;;;;;;;5012441;28;20221;-63
2023/04/15 09:18:43;;;;;;;7.13;4.40;;;;;;;;;;5012104;28;20274;-63
2023/04/15 09:21:10;;;;;;;7.13;4.97;;;;;;;;;;5012436;28;20216;-63
2023/04/15 09:23:35;;;;;;;6.65;4.68;;;;;;;;;;5019798;28;20216;-63
2023/04/15 09:26:01;;;;;;;7.07;5.18;;;;;;;;;;5031259;28;20728;-62
2023/04/15 09:28:27;;;;;;;7.47;4.72;;;;;;;;;;5031961;28;20216;-63
2023/04/15 09:30:55;;;;;;;9.68;5.55;;;;;;;;;;5031652;28;20219;-63
2023/04/15 09:33:20;;;;;;;6.78;5.07;;;;;;;;;;5031750;28;20673;-64
2023/04/15 09:35:55;;;;;;;6.60;4.65;;;;;;;;;;5031126;28;20238;-64
2023/04/15 09:38:20;;;;;;;6.80;4.80;;;;;;;;;;5025991;28;20286;-64
2023/04/15 09:40:45;;;;;;;9.82;4.93;;;;;;;;;;5007519;28;20306;-64
2023/04/15 09:43:12;;;;;;;6.80;4.63;;;;;;;;;;5028977;28;20200;-63
2023/04/15 09:45:40;;;;;;;6.80;4.80;;;;;;;;;;5031487;28;20203;-63
2023/04/15 09:48:15;;;;;;;8.82;5.82;;;;;;;;;;5030194;28;20232;-63
2023/04/15 09:50:41;;;;;;;7.68;5.65;;;;;;;;;;5032188;28;20207;-64
2023/04/15 09:53:08;;;;;;;7.57;5.65;;;;;;;;;;5027633;28;20277;-63
2023/04/15 09:55:33;;;;;;;8.30;5.22;;;;;;;;;;5014469;28;20270;-63
2023/04/15 09:57:58;;;;;;;8.75;5.75;;;;;;;;;;5016076;28;20243;-64
2023/04/15 10:00:24;;;;;;;11.15;5.50;;;;;;;;;;5014924;28;20540;-63
2023/04/15 10:02:49;;;;;;;7.35;4.90;;;;;;;;;;5015993;28;20219;-63
2023/04/15 10:05:16;;;;;;;7.43;4.90;;;;;;;;;;4998090;28;20220;-63
2023/04/15 10:07:42;;;;;;;6.80;4.47;;;;;;;;;;5015344;28;20228;-63
2023/04/15 10:10:08;;;;;;;6.60;4.03;;;;;;;;;;4998081;28;20708;-63
2023/04/15 10:12:33;;;;;;;6.75;4.35;;;;;;;;;;5015807;28;20204;-63
2023/04/15 10:15:00;;;;;;;6.93;4.57;;;;;;;;;;5015026;28;20209;-63
2023/04/15 10:17:26;;;;;;;10.85;5.10;;;;;;;;;;4998372;28;20244;-63
2023/04/15 10:19:52;;;;;;;7.93;4.97;;;;;;;;;;5015863;28;20639;-63
2023/04/15 10:22:18;;;;;;;7.78;5.10;;;;;;;;;;5014687;28;20212;-64
2023/04/15 10:24:44;;;;;;;6.93;4.70;;;;;;;;;;5016095;28;20267;-63
2023/04/15 10:27:09;;;;;;;8.20;4.80;;;;;;;;;;5014469;28;20217;-63
2023/04/15 10:29:35;;;;;;;6.55;4.60;;;;;;;;;;5015560;28;20579;-63
2023/04/15 10:32:00;;;;;;;6.32;4.10;;;;;;;;;;5015214;28;20602;-62
2023/04/15 10:34:25;;;;;;;7.07;4.10;;;;;;;;;;5013706;28;20251;-63
2023/04/15 10:36:54;;;;;;;7.88;3.92;;;;;;;;;;5015565;28;20217;-63
2023/04/15 10:39:32;;;;;;;5.18;3.78;;;;;;;;;;5014754;28;20632;-65
2023/04/15 10:42:14;;;;;;;5.15;3.60;;;;;;;;;;5014984;28;20212;-68
2023/04/15 10:44:43;;;;;;;7.28;3.75;;;;;;;;;;4995205;28;20264;-67
2023/04/15 10:47:09;;;;;;;5.80;3.22;;;;;;;;;;4994047;28;20232;-65
2023/04/15 10:49:35;;;;;;;9.30;3.83;;;;;;;;;;4995203;28;20696;-66
2023/04/15 10:52:00;;;;;;;6.53;3.00;;;;;;;;;;4978462;28;20240;-65
2023/04/15 10:54:25;;;;;;;5.35;2.90;;;;;;;;;;5010732;28;20274;-65
2023/04/15 10:56:51;;;;;;;5.15;2.83;;;;;;;;;;5014539;28;20216;-67
2023/04/15 10:59:16;;;;;;;6.25;2.88;;;;;;;;;;5014737;28;20224;-65
2023/04/15 11:01:59;;;;;;;5.93;3.10;;;;;;;;;;5015262;28;20212;-65
2023/04/15 11:04:50;;;;;;;6.43;3.80;;;;;;;;;;5014003;28;20366;-65
2023/04/15 11:07:15;;;;;;;6.07;3.97;;;;;;;;;;5014274;28;20586;-65
2023/04/15 11:09:40;;;;;;;5.90;3.63;;;;;;;;;;5014260;28;20216;-68
2023/04/15 11:12:08;;;;;;;4.93;3.30;;;;;;;;;;5014546;28;20295;-64
2023/04/15 11:14:35;;;;;;;4.60;3.30;;;;;;;;;;5014948;28;20220;-65
2023/04/15 11:17:01;;;;;;;5.25;2.83;;;;;;;;;;5012310;28;20251;-64
2023/04/15 11:19:26;;;;;;;4.43;2.95;;;;;;;;;;5013817;28;20255;-65
2023/04/15 11:21:51;;;;;;;4.60;2.70;;;;;;;;;;5012343;28;20220;-65
2023/04/15 11:24:25;;;;;;;4.47;2.83;;;;;;;;;;5033361;28;20211;-65
2023/04/15 11:26:51;;;;;;;4.93;2.60;;;;;;;;;;5034252;28;20560;-66
2023/04/15 11:29:16;;;;;;;4.28;2.65;;;;;;;;;;5032361;28;20230;-65
2023/04/15 11:31:44;;;;;;;4.07;3.00;;;;;;;;;;5033421;28;20354;-65
2023/04/15 11:34:10;;;;;;;5.55;3.10;;;;;;;;;;5032574;28;20270;-65
2023/04/15 11:36:35;;;;;;;9.63;3.45;;;;;;;;;;5034577;28;20212;-65
2023/04/15 11:39:00;;;;;;;7.20;2.80;;;;;;;;;;5033121;28;20219;-64
2023/04/15 11:41:26;;;;;;;7.38;3.38;;;;;;;;;;5033945;28;20210;-66
2023/04/15 11:43:51;;;;;;;5.50;3.13;;;;;;;;;;5034189;28;20222;-66
2023/04/15 11:46:16;;;;;;;6.28;2.90;;;;;;;;;;5031504;28;20220;-65
2023/04/15 11:48:43;;;;;;;7.50;3.05;;;;;;;;;;5034066;28;20229;-65
2023/04/15 11:51:08;;;;;;;4.63;2.70;;;;;;;;;;5033854;28;20208;-65
2023/04/15 11:53:40;;;;;;;6.85;3.83;;;;;;;;;;5021105;28;20239;-66
2023/04/15 11:56:05;;;;;;;5.57;2.70;;;;;;;;;;5013445;28;20235;-66
2023/04/15 11:58:32;;;;;;;14.38;9.00;;;;;;;;;;5013560;28;20699;-66
2023/04/15 12:00:58;;;;;;;5.05;3.03;;;;;;;;;;5014043;28;20208;-66
2023/04/15 12:03:27;;;;;;;8.57;4.82;;;;;;;;;;5013401;28;20262;-65
2023/04/15 12:06:02;;;;;;;9.77;3.10;;;;;;;;;;5013137;28;20664;-66
2023/04/15 12:08:47;;;;;;;5.18;2.33;;;;;;;;;;5013426;28;20281;-65
2023/04/15 12:11:12;;;;;;;7.07;2.10;;;;;;;;;;5013248;28;20783;-65
2023/04/15 12:13:37;;;;;;;3.72;1.98;;;;;;;;;;5013069;28;20212;-65
2023/04/15 12:16:03;;;;;;;5.85;1.60;;;;;;;;;;5012960;28;20219;-65
2023/04/15 12:18:28;;;;;;;5.25;1.70;;;;;;;;;;4995227;28;20235;-65
2023/04/15 12:20:53;;;;;;;3.67;1.73;;;;;;;;;;5012877;28;20251;-64
2023/04/15 12:23:19;;;;;;;3.70;1.67;;;;;;;;;;5013262;28;20212;-70
2023/04/15 12:25:50;;;;;;;4.55;1.50;;;;;;;;;;5013361;28;20735;-70
2023/04/15 12:28:16;;;;;;;3.60;1.70;;;;;;;;;;5012170;28;20232;-70
2023/04/15 12:30:48;;;;;;;5.18;1.95;;;;;;;;;;5012731;28;20216;-70
2023/04/15 12:33:14;;;;;;;4.50;1.77;;;;;;;;;;4995434;28;20360;-70
2023/04/15 12:35:39;;;;;;;2.97;1.63;;;;;;;;;;4991045;28;20719;-70
2023/04/15 12:38:04;;;;;;;3.17;1.85;;;;;;;;;;5000631;28;20227;-70
2023/04/15 12:40:30;;;;;;;3.10;1.88;;;;;;;;;;5006185;28;20208;-70
2023/04/15 12:42:56;;;;;;;3.00;1.85;;;;;;;;;;4988445;28;20224;-71
2023/04/15 12:45:21;;;;;;;3.20;1.65;;;;;;;;;;4987474;28;20220;-70
2023/04/15 12:47:47;;;;;;;3.10;1.33;;;;;;;;;;4987033;28;20609;-70
2023/04/15 12:50:12;;;;;;;4.03;1.67;;;;;;;;;;4994893;28;20217;-70
2023/04/15 12:52:37;;;;;;;4.25;1.63;;;;;;;;;;5011049;28;20242;-70
2023/04/15 12:55:02;;;;;;;1.60;1.40;;;;;;;;;;5006879;28;20297;-70
2023/04/15 12:57:28;;;;;;;3.88;1.67;;;;;;;;;;5006225;28;20208;-70
2023/04/15 12:59:54;;;;;;;5.32;1.50;;;;;;;;;;5007412;28;20220;-70
2023/04/15 13:02:22;;;;;;;3.55;1.90;;;;;;;;;;5005907;28;20219;-70
2023/04/15 13:04:47;;;;;;;4.18;1.58;;;;;;;;;;5024930;28;20273;-70
2023/04/15 13:07:14;;;;;;;2.83;1.52;;;;;;;;;;5017696;28;20212;-70
2023/04/15 13:09:39;;;;;;;3.72;1.52;;;;;;;;;;5025223;28;20291;-70
2023/04/15 13:12:05;;;;;;;3.15;1.50;;;;;;;;;;5025586;28;20223;-70
2023/04/15 13:14:30;;;;;;;2.95;1.40;;;;;;;;;;5026659;28;20218;-70
2023/04/15 13:16:56;;;;;;;4.03;1.50;;;;;;;;;;5025320;28;20754;-70
2023/04/15 13:19:22;;;;;;;3.40;1.40;;;;;;;;;;5025482;28;20220;-68
2023/04/15 13:21:47;;;;;;;1.98;1.20;;;;;;;;;;5024269;28;20367;-68
2023/04/15 13:24:12;;;;;;;4.10;1.50;;;;;;;;;;5005189;28;20347;-69
2023/04/15 13:26:37;;;;;;;5.70;1.33;;;;;;;;;;5007434;28;20708;-68
2023/04/15 13:29:03;;;;;;;1.60;1.15;;;;;;;;;;5005754;28;20228;-68
2023/04/15 13:31:28;;;;;;;2.17;1.08;;;;;;;;;;5006925;28;20219;-68
2023/04/15 13:33:54;;;;;;;4.03;1.50;;;;;;;;;;5006630;28;20266;-69
2023/04/15 13:36:19;;;;;;;2.97;1.40;;;;;;;;;;5006874;28;20216;-70
2023/04/15 13:38:44;;;;;;;4.95;1.20;;;;;;;;;;5006010;28;20586;-67
2023/04/15 13:41:10;;;;;;;5.15;1.85;;;;;;;;;;5012457;28;20219;-70
2023/04/15 13:43:35;;;;;;;105.40;53.58;;;;;;;;;;5026101;28;20242;-68
2023/04/15 13:46:00;;;;;;;3.35;1.17;;;;;;;;;;5025339;28;20215;-68
2023/04/15 13:48:26;;;;;;;35.75;21.40;;;;;;;;;;5010843;28;20255;-68
2023/04/15 13:50:51;;;;;;;3.65;1.40;;;;;;;;;;4998667;28;20541;-68
2023/04/15 13:53:16;;;;;;;1.95;1.25;;;;;;;;;;5010184;28;20301;-69
2023/04/15 13:55:41;;;;;;;4.28;3.78;;;;;;;;;;4995495;28;20247;-68
2023/04/15 13:58:07;;;;;;;51.50;24.92;;;;;;;;;;5004741;28;20630;-68
2023/04/15 14:00:32;;;;;;;4.70;1.45;;;;;;;;;;5017621;28;20326;-64
2023/04/15 14:02:58;;;;;;;6.63;2.15;;;;;;;;;;5005564;28;20228;-64
2023/04/15 14:05:23;;;;;;;5.70;1.80;;;;;;;;;;4994075;28;20245;-64
2023/04/15 14:07:48;;;;;;;3.35;1.38;;;;;;;;;;4995677;28;20603;-64
2023/04/15 14:10:14;;;;;;;13.02;7.30;;;;;;;;;;4996918;28;20236;-63
2023/04/15 14:12:39;;;;;;;3.10;1.77;;;;;;;;;;4991950;28;20239;-64
2023/04/15 14:15:05;;;;;;;10.25;7.18;;;;;;;;;;4989832;28;20664;-63
2023/04/15 14:17:30;;;;;;;6.35;3.05;;;;;;;;;;4987490;28;20341;-64
2023/04/15 14:19:55;;;;;;;5.22;2.63;;;;;;;;;;4996525;28;20212;-64
2023/04/15 14:22:21;;;;;;;17.00;12.10;;;;;;;;;;4995158;28;20316;-63
2023/04/15 14:24:48;;;;;;;5.60;3.10;;;;;;;;;;4995201;28;20695;-64
2023/04/15 14:27:13;;;;;;;4.53;1.60;;;;;;;;;;4995181;28;20707;-63